TimeEDT,TemperatureF,Dew PointF,Humidity,Sea Level PressureIn,VisibilityMPH,Wind Direction,Wind SpeedMPH,Gust SpeedMPH,PrecipitationIn,Events,Conditions,WindDirDegrees,DateUTC
12:52 AM,72.0,69.1,91,30.04,10.0,SW,6.9,-,N/A,,Scattered Clouds,230,2013-07-30 04:52:00
1:52 AM,72.0,69.1,91,30.04,10.0,WSW,3.5,-,N/A,,Clear,240,2013-07-30 05:52:00
2:52 AM,71.1,68.0,90,30.04,10.0,WSW,3.5,-,N/A,,Clear,250,2013-07-30 06:52:00
3:52 AM,69.1,66.9,93,30.03,10.0,Calm,Calm,-,N/A,,Clear,0,2013-07-30 07:52:00
4:43 AM,69.8,66.2,88,30.03,10.0,Variable,6.9,-,N/A,,Partly Cloudy,0,2013-07-30 08:43:00
4:52 AM,70.0,66.9,90,30.04,10.0,Variable,4.6,-,N/A,,Mostly Cloudy,0,2013-07-30 08:52:00
5:05 AM,69.8,66.2,88,30.03,7.0,NW,5.8,-,N/A,,Overcast,320,2013-07-30 09:05:00
5:47 AM,66.2,64.4,94,30.05,2.0,Variable,4.6,-,N/A,,Overcast,0,2013-07-30 09:47:00
5:52 AM,66.9,64.9,93,30.05,1.8,NNW,5.8,-,N/A,,Overcast,330,2013-07-30 09:52:00
6:11 AM,66.2,64.4,94,30.05,3.0,NNW,4.6,-,N/A,,Overcast,330,2013-07-30 10:11:00
6:52 AM,66.9,64.0,90,30.06,10.0,Variable,5.8,-,0.01,,Overcast,0,2013-07-30 10:52:00
7:13 AM,66.2,64.4,94,30.06,10.0,NNW,4.6,-,N/A,,Scattered Clouds,340,2013-07-30 11:13:00
7:52 AM,66.9,64.0,90,30.07,10.0,NW,6.9,-,N/A,,Clear,320,2013-07-30 11:52:00
8:52 AM,71.1,61.0,70,30.07,10.0,NW,9.2,-,N/A,,Clear,310,2013-07-30 12:52:00
9:52 AM,73.9,60.1,62,30.09,10.0,Variable,6.9,-,N/A,,Clear,0,2013-07-30 13:52:00
10:52 AM,75.0,60.1,60,30.10,10.0,Variable,6.9,-,N/A,,Clear,0,2013-07-30 14:52:00
11:52 AM,75.0,60.1,60,30.09,10.0,NW,9.2,-,N/A,,Clear,310,2013-07-30 15:52:00
12:52 PM,77.0,59.0,54,30.09,10.0,NNW,6.9,-,N/A,,Clear,330,2013-07-30 16:52:00
1:52 PM,78.1,57.9,50,30.08,10.0,Variable,5.8,-,N/A,,Clear,0,2013-07-30 17:52:00
2:52 PM,78.1,57.9,50,30.07,10.0,Calm,Calm,-,N/A,,Clear,0,2013-07-30 18:52:00
3:52 PM,77.0,63.0,62,30.07,10.0,Variable,4.6,-,N/A,,Clear,0,2013-07-30 19:52:00
4:52 PM,75.9,61.0,60,30.07,10.0,South,6.9,-,N/A,,Clear,170,2013-07-30 20:52:00
5:52 PM,73.9,63.0,68,30.07,10.0,Variable,3.5,-,N/A,,Clear,0,2013-07-30 21:52:00
6:52 PM,71.1,63.0,75,30.08,10.0,SSE,3.5,-,N/A,,Clear,160,2013-07-30 22:52:00
7:52 PM,70.0,64.9,84,30.09,10.0,Calm,Calm,-,N/A,,Clear,0,2013-07-30 23:52:00
8:52 PM,71.1,64.9,81,30.10,10.0,WSW,3.5,-,N/A,,Partly Cloudy,240,2013-07-31 00:52:00
9:52 PM,70.0,66.0,87,30.11,10.0,SSW,4.6,-,N/A,,Clear,210,2013-07-31 01:52:00
10:52 PM,70.0,66.0,87,30.10,10.0,Calm,Calm,-,N/A,,Clear,0,2013-07-31 02:52:00
11:52 PM,69.1,64.9,87,30.09,10.0,Calm,Calm,-,N/A,,Overcast,0,2013-07-31 03:52:00